createdAt,value
2019-01-26T00:02:06.957Z,99.90
2019-01-26T00:04:37.271Z,99.90
2019-01-26T00:07:07.957Z,99.90
2019-01-26T00:09:37.889Z,99.90
2019-01-26T00:12:08.349Z,99.90
2019-01-26T00:14:38.316Z,99.90
2019-01-26T00:17:08.625Z,99.90
2019-01-26T00:19:40.526Z,99.90
2019-01-26T00:22:10.828Z,99.90
2019-01-26T00:24:40.980Z,99.90
2019-01-26T00:27:13.799Z,99.90
2019-01-26T00:29:43.748Z,99.90
2019-01-26T00:32:14.029Z,99.90
2019-01-26T00:34:44.944Z,99.90
2019-01-26T00:37:15.112Z,99.90
2019-01-26T00:39:45.251Z,99.90
2019-01-26T00:42:15.347Z,99.90
2019-01-26T00:44:45.572Z,99.90
2019-01-26T00:47:15.783Z,99.90
2019-01-26T00:49:45.805Z,99.90
2019-01-26T00:52:15.853Z,99.90
2019-01-26T00:54:45.882Z,99.90
2019-01-26T00:57:16.112Z,99.90
2019-01-26T00:59:46.209Z,99.90
2019-01-26T01:02:17.551Z,99.90
2019-01-26T01:04:47.584Z,99.90
2019-01-26T01:07:17.712Z,99.90
2019-01-26T01:09:47.856Z,99.90
2019-01-26T01:12:18.105Z,99.90
2019-01-26T01:14:49.784Z,99.90
2019-01-26T01:17:20.433Z,99.90
2019-01-26T01:19:50.492Z,99.90
2019-01-26T01:22:21.837Z,99.90
2019-01-26T01:24:51.957Z,99.90
2019-01-26T01:27:21.988Z,99.90
2019-01-26T01:29:52.071Z,99.90
2019-01-26T01:32:22.359Z,99.90
2019-01-26T01:34:52.610Z,99.90
2019-01-26T01:37:22.662Z,99.90
2019-01-26T01:39:52.703Z,99.90
2019-01-26T01:42:22.893Z,99.90
2019-01-26T01:44:52.953Z,99.90
2019-01-26T01:47:23.135Z,99.90
2019-01-26T01:49:56.563Z,99.90
2019-01-26T01:52:27.518Z,99.90
2019-01-26T01:55:00.420Z,99.90
2019-01-26T01:57:30.663Z,99.90
2019-01-26T02:00:02.406Z,99.90
2019-01-26T02:02:33.920Z,99.90
2019-01-26T02:05:04.770Z,99.90
2019-01-26T02:07:34.973Z,99.90
2019-01-26T02:10:08.127Z,99.90
2019-01-26T02:12:39.674Z,99.90
2019-01-26T02:15:11.328Z,99.90
2019-01-26T02:17:43.162Z,99.90
2019-01-26T02:20:32.484Z,99.90
2019-01-26T02:23:02.499Z,99.90
2019-01-26T02:25:32.896Z,99.90
2019-01-26T02:28:03.039Z,99.90
2019-01-26T02:30:34.320Z,99.90
2019-01-26T02:33:04.428Z,99.90
2019-01-26T02:35:34.557Z,99.90
2019-01-26T02:38:04.929Z,99.90
2019-01-26T02:40:34.968Z,99.90
2019-01-26T02:43:05.180Z,99.90
2019-01-26T02:45:35.134Z,99.90
2019-01-26T02:48:05.399Z,99.90
2019-01-26T02:50:35.444Z,99.90
2019-01-26T02:53:06.533Z,99.90
2019-01-26T02:55:36.631Z,99.90
2019-01-26T02:58:07.463Z,99.90
2019-01-26T03:00:37.513Z,99.90
2019-01-26T03:03:07.560Z,99.90
2019-01-26T03:05:37.717Z,99.90
2019-01-26T03:08:07.944Z,99.90
2019-01-26T03:10:39.200Z,99.90
2019-01-26T03:13:09.338Z,99.90
2019-01-26T03:15:41.480Z,99.90
2019-01-26T03:18:13.049Z,99.90
2019-01-26T03:20:43.064Z,99.90
2019-01-26T03:23:13.243Z,99.90
2019-01-26T03:25:43.522Z,99.90
2019-01-26T03:28:13.707Z,99.90
2019-01-26T03:30:44.857Z,99.90
2019-01-26T03:33:15.137Z,99.90
2019-01-26T03:41:46.024Z,99.90
2019-01-26T03:44:16.157Z,99.90
2019-01-26T03:46:48.632Z,99.90
2019-01-26T03:49:18.834Z,99.90
2019-01-26T03:51:49.202Z,99.90
2019-01-26T03:54:19.447Z,99.90
2019-01-26T03:56:49.876Z,99.90
2019-01-26T03:59:20.476Z,99.90
2019-01-26T04:01:50.676Z,99.90
2019-01-26T04:04:21.032Z,99.90
2019-01-26T04:06:51.172Z,99.90
2019-01-26T04:09:24.434Z,99.90
2019-01-26T04:11:54.601Z,99.90
2019-01-26T04:14:24.584Z,99.90
2019-01-26T04:16:55.043Z,99.90
2019-01-26T04:19:27.036Z,99.90
2019-01-26T04:21:58.515Z,99.90
2019-01-26T04:24:28.502Z,99.90
2019-01-26T04:26:58.529Z,99.90
2019-01-26T04:29:28.608Z,99.90
2019-01-26T04:31:59.652Z,99.90
2019-01-26T04:34:30.831Z,99.90
2019-01-26T04:37:02.349Z,99.90
2019-01-26T04:39:32.348Z,99.90
2019-01-26T04:42:02.403Z,99.90
2019-01-26T04:44:32.542Z,99.90
2019-01-26T04:47:02.681Z,99.90
2019-01-26T04:49:32.719Z,99.90
2019-01-26T04:52:03.301Z,99.90
2019-01-26T04:54:33.285Z,99.90
2019-01-26T04:57:03.316Z,99.90
2019-01-26T04:59:33.272Z,99.90
2019-01-26T05:02:03.608Z,99.90
2019-01-26T05:04:33.751Z,99.90
2019-01-26T05:07:04.895Z,99.90
2019-01-26T05:09:35.123Z,99.90
2019-01-26T05:12:05.535Z,99.90
2019-01-26T05:14:35.602Z,99.90
2019-01-26T05:17:05.789Z,99.90
2019-01-26T05:19:36.041Z,99.90
2019-01-26T05:22:07.471Z,99.90
2019-01-26T05:24:37.747Z,99.90
2019-01-26T05:27:08.529Z,99.90
2019-01-26T05:29:38.487Z,99.90
2019-01-26T05:32:08.401Z,99.90
2019-01-26T05:34:38.518Z,99.90
2019-01-26T05:37:08.599Z,99.90
2019-01-26T05:39:38.796Z,99.90
2019-01-26T05:42:08.758Z,99.90
2019-01-26T05:44:38.864Z,99.90
2019-01-26T05:47:10.660Z,99.90
2019-01-26T05:49:40.788Z,99.90
2019-01-26T05:52:10.884Z,99.90
2019-01-26T05:54:42.029Z,99.90
2019-01-26T05:57:12.487Z,99.90
2019-01-26T05:59:42.413Z,99.90
2019-01-26T06:02:12.607Z,99.90
2019-01-26T06:04:42.605Z,99.90
2019-01-26T06:07:12.772Z,99.90
2019-01-26T06:09:42.726Z,99.90
2019-01-26T06:12:12.816Z,99.90
2019-01-26T06:14:42.875Z,99.90
2019-01-26T06:17:13.125Z,99.90
2019-01-26T06:19:43.537Z,99.90
2019-01-26T06:22:13.667Z,99.90
2019-01-26T06:24:43.828Z,99.90
2019-01-26T06:27:13.957Z,99.90
2019-01-26T06:29:44.171Z,99.90
2019-01-26T06:32:14.359Z,99.90
2019-01-26T06:34:45.886Z,99.90
2019-01-26T06:37:16.750Z,99.90
2019-01-26T06:39:46.739Z,99.90
2019-01-26T06:42:16.873Z,99.90
2019-01-26T06:44:51.230Z,99.90
2019-01-26T06:47:22.175Z,99.90
2019-01-26T06:49:52.321Z,99.90
2019-01-26T06:52:22.437Z,99.90
2019-01-26T06:54:52.598Z,99.90
2019-01-26T06:57:22.653Z,99.90
2019-01-26T06:59:54.357Z,99.90
2019-01-26T07:02:24.368Z,99.90
2019-01-26T07:04:57.426Z,99.90
2019-01-26T07:07:27.503Z,99.90
2019-01-26T07:09:57.556Z,99.90
2019-01-26T07:12:27.910Z,99.90
2019-01-26T07:14:57.945Z,99.90
2019-01-26T07:17:28.067Z,99.90
2019-01-26T07:19:59.479Z,99.90
2019-01-26T07:22:29.798Z,99.90
2019-01-26T07:24:59.873Z,99.90
2019-01-26T07:27:30.120Z,99.90
2019-01-26T07:30:00.229Z,99.90
2019-01-26T07:32:30.656Z,99.90
2019-01-26T07:35:00.694Z,99.90
2019-01-26T07:37:30.863Z,99.90
2019-01-26T07:40:03.909Z,99.90
2019-01-26T07:42:33.904Z,99.90
2019-01-26T07:45:04.590Z,99.90
2019-01-26T07:47:34.749Z,99.90
2019-01-26T07:50:07.433Z,99.90
2019-01-26T07:52:37.558Z,99.90
2019-01-26T07:55:10.192Z,99.90
2019-01-26T07:57:40.544Z,99.90
2019-01-26T08:00:27.961Z,99.90
2019-01-26T08:02:58.025Z,99.90
2019-01-26T08:05:29.509Z,99.90
2019-01-26T08:07:59.588Z,99.90
2019-01-26T08:10:29.741Z,99.90
2019-01-26T08:12:59.974Z,99.90
2019-01-26T08:15:32.721Z,99.90
2019-01-26T08:18:02.952Z,99.90
2019-01-26T08:20:33.833Z,99.90
2019-01-26T08:23:03.860Z,99.90
2019-01-26T08:25:33.956Z,99.90
2019-01-26T08:28:04.382Z,99.90
2019-01-26T08:30:34.560Z,99.90
2019-01-26T08:33:06.364Z,99.90
2019-01-26T08:35:36.486Z,99.90
2019-01-26T08:38:07.245Z,99.90
2019-01-26T08:40:37.364Z,99.90
2019-01-26T08:43:07.598Z,99.90
2019-01-26T08:45:37.707Z,99.90
2019-01-26T08:48:08.002Z,99.90
2019-01-26T08:50:37.948Z,99.90
2019-01-26T08:53:08.307Z,99.90
2019-01-26T08:55:38.288Z,99.90
2019-01-26T08:58:08.388Z,99.90
2019-01-26T09:00:39.948Z,99.90
2019-01-26T09:03:11.691Z,99.90
2019-01-26T09:05:52.433Z,99.90
2019-01-26T09:08:22.490Z,99.90
2019-01-26T09:10:52.560Z,99.90
2019-01-26T09:13:23.004Z,99.90
2019-01-26T09:15:53.426Z,99.90
2019-01-26T09:18:23.551Z,99.90
2019-01-26T09:20:53.787Z,99.90
2019-01-26T09:23:23.983Z,99.90
2019-01-26T09:25:54.030Z,99.90
2019-01-26T09:28:24.395Z,99.90
2019-01-26T09:30:54.645Z,99.90
2019-01-26T09:33:24.783Z,99.90
2019-01-26T09:35:54.746Z,99.90
2019-01-26T09:38:24.870Z,99.90
2019-01-26T09:40:55.063Z,99.90
2019-01-26T09:43:25.286Z,99.90
2019-01-26T09:45:55.308Z,99.90
2019-01-26T09:48:25.426Z,99.90
2019-01-26T09:50:57.029Z,99.90
2019-01-26T09:53:27.145Z,99.90
2019-01-26T09:55:58.552Z,99.90
2019-01-26T09:58:28.948Z,99.90
2019-01-26T10:00:59.035Z,99.90
2019-01-26T10:03:28.988Z,99.90
2019-01-26T10:05:59.109Z,99.90
2019-01-26T10:08:29.202Z,99.90
2019-01-26T10:10:59.724Z,99.60
2019-01-26T10:13:30.507Z,99.60
2019-01-26T10:16:00.551Z,99.50
2019-01-26T10:18:30.773Z,99.90
2019-01-26T10:21:01.550Z,99.90
2019-01-26T10:23:31.750Z,99.80
2019-01-26T10:26:02.034Z,99.70
2019-01-26T10:28:32.170Z,99.80
2019-01-26T10:31:02.393Z,99.20
2019-01-26T10:33:32.520Z,99.20
2019-01-26T10:36:04.347Z,99.50
2019-01-26T10:38:35.918Z,99.90
2019-01-26T10:41:08.816Z,99.60
2019-01-26T10:43:43.630Z,99.40
2019-01-26T10:46:15.336Z,99.00
2019-01-26T10:48:45.324Z,99.50
2019-01-26T10:51:16.106Z,99.60
2019-01-26T10:53:46.245Z,99.00
2019-01-26T10:56:16.590Z,99.20
2019-01-26T10:58:46.558Z,99.00
2019-01-26T11:01:16.637Z,98.70
2019-01-26T11:03:46.661Z,98.70
2019-01-26T11:06:16.853Z,98.50
2019-01-26T11:08:46.793Z,98.50
2019-01-26T11:11:19.243Z,98.00
2019-01-26T11:13:50.450Z,98.30
2019-01-26T11:16:20.670Z,99.40
2019-01-26T11:18:52.286Z,99.90
2019-01-26T11:21:22.564Z,99.90
2019-01-26T11:23:52.505Z,99.90
2019-01-26T11:26:23.077Z,99.90
2019-01-26T11:28:53.265Z,99.90
2019-01-26T11:31:23.847Z,99.90
2019-01-26T11:33:53.957Z,99.90
2019-01-26T11:36:24.098Z,99.90
2019-01-26T11:38:54.222Z,99.90
2019-01-26T11:41:24.351Z,99.90
2019-01-26T11:43:57.101Z,99.90
2019-01-26T11:46:27.512Z,99.90
2019-01-26T11:48:57.916Z,99.90
2019-01-26T11:51:32.756Z,99.90
2019-01-26T11:54:03.153Z,99.90
2019-01-26T11:56:44.562Z,99.90
2019-01-26T11:59:15.126Z,99.90
2019-01-26T12:01:47.088Z,99.90
2019-01-26T12:04:30.864Z,99.90
2019-01-26T12:07:02.509Z,99.90
2019-01-26T12:09:32.626Z,99.90
2019-01-26T12:12:02.797Z,99.90
2019-01-26T12:14:32.959Z,99.90
2019-01-26T12:17:03.283Z,99.90
2019-01-26T12:19:34.893Z,99.90
2019-01-26T12:22:05.495Z,99.90
2019-01-26T12:24:37.911Z,99.90
2019-01-26T12:27:09.128Z,99.90
2019-01-26T12:29:39.705Z,99.90
2019-01-26T12:32:09.843Z,99.90
2019-01-26T12:34:40.207Z,99.90
2019-01-26T12:37:10.473Z,99.90
2019-01-26T12:39:40.503Z,99.90
2019-01-26T12:42:10.690Z,99.90
2019-01-26T12:44:42.379Z,99.90
2019-01-26T12:47:16.913Z,99.90
2019-01-26T12:49:45.590Z,99.90
2019-01-26T12:52:16.003Z,99.90
2019-01-26T12:54:46.289Z,99.90
2019-01-26T12:57:18.103Z,99.90
2019-01-26T12:59:50.389Z,99.90
2019-01-26T13:02:20.352Z,99.90
2019-01-26T13:04:50.671Z,99.90
2019-01-26T13:07:20.951Z,99.90
2019-01-26T13:09:52.244Z,99.90
2019-01-26T13:12:22.452Z,99.90
2019-01-26T13:14:53.819Z,99.90
2019-01-26T13:17:26.910Z,99.90
2019-01-26T13:19:57.584Z,99.90
2019-01-26T13:22:29.869Z,99.90
2019-01-26T13:25:03.220Z,99.90
2019-01-26T13:27:34.771Z,99.90
2019-01-26T13:30:07.625Z,99.90
2019-01-26T13:32:38.027Z,99.90
2019-01-26T13:35:12.156Z,99.90
2019-01-26T13:37:42.423Z,99.90
2019-01-26T13:40:21.145Z,99.90
2019-01-26T13:42:51.135Z,99.90
2019-01-26T13:45:21.512Z,99.90
2019-01-26T13:47:54.473Z,99.90
2019-01-26T13:50:28.245Z,99.90
2019-01-26T13:52:59.769Z,99.90
2019-01-26T13:55:30.229Z,99.90
2019-01-26T13:58:00.509Z,99.90
2019-01-26T14:00:38.655Z,99.90
2019-01-26T14:03:14.810Z,99.90
2019-01-26T14:05:45.165Z,99.90
2019-01-26T14:08:15.643Z,99.90
2019-01-26T14:10:46.063Z,99.90
2019-01-26T14:13:16.424Z,99.90
2019-01-26T14:15:46.914Z,99.90
2019-01-26T14:18:17.692Z,99.90
2019-01-26T14:20:49.033Z,99.90
2019-01-26T14:23:21.319Z,99.90
2019-01-26T14:25:51.671Z,99.90
2019-01-26T14:28:23.518Z,99.90
2019-01-26T14:30:55.231Z,99.90
2019-01-26T14:33:25.524Z,99.90
2019-01-26T14:35:57.385Z,99.90
2019-01-26T14:38:28.485Z,99.90
2019-01-26T14:41:01.067Z,99.90
2019-01-26T14:43:31.607Z,99.90
2019-01-26T14:46:01.878Z,99.90
2019-01-26T14:48:39.569Z,99.90
2019-01-26T14:51:12.076Z,99.90
2019-01-26T14:53:47.604Z,99.90
2019-01-26T14:56:16.153Z,99.90
2019-01-26T14:58:48.377Z,99.90
2019-01-26T15:01:18.768Z,99.90
2019-01-26T15:03:49.536Z,99.90
2019-01-26T15:06:19.881Z,99.90
2019-01-26T15:08:50.112Z,99.90
2019-01-26T15:11:20.538Z,99.90
2019-01-26T15:13:56.906Z,99.90
2019-01-26T15:16:28.696Z,99.90
2019-01-26T15:18:58.987Z,99.90
2019-01-26T15:21:30.897Z,99.90
2019-01-26T15:24:01.314Z,99.90
2019-01-26T15:26:35.696Z,99.90
2019-01-26T15:29:07.374Z,99.90
2019-01-26T15:31:37.812Z,99.90
2019-01-26T15:34:10.637Z,99.90
2019-01-26T15:36:41.309Z,99.90
2019-01-26T15:39:13.099Z,99.90
2019-01-26T15:41:43.541Z,99.90
2019-01-26T15:44:13.938Z,99.90
2019-01-26T15:46:45.218Z,99.90
2019-01-26T15:49:15.647Z,99.90
2019-01-26T15:51:46.109Z,99.90
2019-01-26T15:54:16.872Z,99.90
2019-01-26T15:56:47.230Z,99.90
2019-01-26T15:59:17.426Z,99.90
2019-01-26T16:01:49.541Z,99.90
2019-01-26T16:04:22.493Z,99.90
2019-01-26T16:06:54.743Z,99.90
2019-01-26T16:09:25.069Z,99.90
2019-01-26T16:11:56.303Z,99.90
2019-01-26T16:14:28.148Z,99.90
2019-01-26T16:16:59.108Z,99.90
2019-01-26T16:19:50.052Z,99.90
2019-01-26T16:22:20.791Z,99.90
2019-01-26T16:24:51.130Z,99.90
2019-01-26T16:27:21.533Z,99.90
2019-01-26T16:29:52.313Z,99.90
2019-01-26T16:32:22.763Z,99.90
2019-01-26T16:34:53.551Z,99.90
2019-01-26T16:37:49.966Z,99.90
2019-01-26T16:40:26.374Z,99.90
2019-01-26T16:42:58.805Z,99.90
2019-01-26T16:45:35.102Z,99.90
2019-01-26T16:48:08.293Z,99.90
2019-01-26T16:50:40.174Z,99.90
2019-01-26T16:53:13.581Z,99.90
2019-01-26T16:55:46.674Z,99.90
2019-01-26T16:58:21.307Z,99.90
2019-01-26T17:00:51.885Z,99.90
2019-01-26T17:03:24.541Z,99.90
2019-01-26T17:05:57.556Z,99.90
2019-01-26T17:08:29.600Z,99.90
2019-01-26T17:11:01.426Z,99.90
2019-01-26T17:13:32.714Z,99.90
2019-01-26T17:16:03.630Z,99.90
2019-01-26T17:18:36.311Z,99.90
2019-01-26T17:21:11.842Z,99.90
2019-01-26T17:23:47.413Z,99.90
2019-01-26T17:26:18.004Z,99.90
2019-01-26T17:28:49.619Z,99.90
2019-01-26T17:31:20.331Z,99.90
2019-01-26T17:33:52.174Z,99.90
2019-01-26T17:36:24.771Z,99.90
2019-01-26T17:38:55.933Z,99.90
2019-01-26T17:41:29.437Z,99.90
2019-01-26T17:44:02.399Z,99.90
2019-01-26T17:46:35.547Z,99.90
2019-01-26T17:49:10.476Z,99.90
2019-01-26T17:51:42.240Z,99.90
2019-01-26T17:54:14.615Z,99.90
2019-01-26T17:56:47.124Z,99.90
2019-01-26T17:59:17.964Z,99.90
2019-01-26T18:01:48.778Z,99.90
2019-01-26T18:04:19.679Z,99.90
2019-01-26T18:06:50.504Z,99.90
2019-01-26T18:09:21.810Z,99.90
2019-01-26T18:11:52.348Z,99.90
2019-01-26T18:14:24.688Z,99.90
2019-01-26T18:16:56.488Z,99.90
2019-01-26T18:19:28.339Z,99.90
2019-01-26T18:21:58.794Z,99.90
2019-01-26T18:24:48.912Z,99.90
2019-01-26T18:27:19.410Z,99.90
2019-01-26T18:29:50.070Z,99.90
2019-01-26T18:32:20.987Z,99.90
2019-01-26T18:34:53.686Z,99.90
2019-01-26T18:37:25.202Z,99.90
2019-01-26T18:40:21.212Z,99.90
2019-01-26T18:42:53.144Z,99.90
2019-01-26T18:45:26.723Z,99.90
2019-01-26T18:47:57.199Z,99.90
2019-01-26T18:50:45.107Z,99.90
2019-01-26T18:53:18.728Z,99.90
2019-01-26T18:55:49.460Z,99.90
2019-01-26T18:58:20.535Z,99.90
2019-01-26T19:00:52.295Z,99.90
2019-01-26T19:03:26.158Z,99.90
2019-01-26T19:06:00.350Z,99.90
2019-01-26T19:08:31.716Z,99.90
2019-01-26T19:11:02.848Z,99.90
2019-01-26T19:13:34.681Z,99.90
2019-01-26T19:16:06.453Z,99.90
2019-01-26T19:18:37.491Z,99.90
2019-01-26T19:21:09.300Z,99.90
2019-01-26T19:23:41.051Z,99.90
2019-01-26T19:26:11.981Z,99.90
2019-01-26T19:28:43.815Z,99.90
2019-01-26T19:31:14.990Z,99.90
2019-01-26T19:33:47.677Z,99.90
2019-01-26T19:36:20.401Z,99.90
2019-01-26T19:38:51.803Z,99.90
2019-01-26T19:41:22.490Z,99.90
2019-01-26T19:43:54.193Z,99.90
2019-01-26T19:46:26.659Z,99.90
2019-01-26T19:48:59.246Z,99.90
2019-01-26T19:51:32.446Z,99.90
2019-01-26T19:54:07.626Z,99.90
2019-01-26T19:56:40.778Z,99.90
2019-01-26T19:59:12.479Z,99.90
2019-01-26T20:01:43.364Z,99.90
2019-01-26T20:04:15.127Z,99.90
2019-01-26T20:06:46.974Z,99.90
2019-01-26T20:09:18.831Z,99.90
2019-01-26T20:11:51.926Z,99.90
2019-01-26T20:14:22.954Z,99.90
2019-01-26T20:16:56.697Z,99.90
2019-01-26T20:19:31.319Z,99.90
2019-01-26T20:22:02.882Z,99.90
2019-01-26T20:24:33.245Z,99.90
2019-01-26T20:27:03.934Z,99.90
2019-01-26T20:29:35.779Z,99.90
2019-01-26T20:32:06.652Z,99.90
2019-01-26T20:34:37.123Z,99.90
2019-01-26T20:37:08.206Z,99.90
2019-01-26T20:39:40.765Z,99.90
2019-01-26T20:42:11.366Z,99.90
2019-01-26T20:44:42.528Z,99.90
2019-01-26T20:47:13.276Z,99.90
2019-01-26T20:49:43.543Z,99.90
2019-01-26T20:52:14.001Z,99.90
2019-01-26T20:54:44.418Z,99.90
2019-01-26T20:57:14.931Z,99.90
2019-01-26T20:59:45.397Z,99.90
2019-01-26T21:02:17.966Z,99.90
2019-01-26T21:04:48.493Z,99.90
2019-01-26T21:07:20.110Z,99.90
2019-01-26T21:09:50.625Z,99.90
2019-01-26T21:12:21.440Z,99.90
2019-01-26T21:14:52.314Z,99.90
2019-01-26T21:17:23.536Z,99.90
2019-01-26T21:19:54.069Z,99.90
2019-01-26T21:22:24.751Z,99.90
2019-01-26T21:24:56.676Z,99.90
2019-01-26T21:27:28.445Z,99.90
2019-01-26T21:29:58.935Z,99.90
2019-01-26T21:32:29.661Z,99.90
2019-01-26T21:34:59.885Z,99.90
2019-01-26T21:37:30.242Z,99.90
2019-01-26T21:40:00.914Z,99.90
2019-01-26T21:42:33.061Z,99.90
2019-01-26T21:45:07.402Z,99.90
2019-01-26T21:47:37.787Z,99.90
2019-01-26T21:50:16.965Z,99.90
2019-01-26T21:52:47.421Z,99.90
2019-01-26T21:55:17.883Z,99.90
2019-01-26T21:57:48.054Z,99.90
2019-01-26T22:00:39.090Z,99.90
2019-01-26T22:03:10.846Z,99.90
2019-01-26T22:05:41.208Z,99.90
2019-01-26T22:08:11.493Z,99.90
2019-01-26T22:10:42.343Z,99.90
2019-01-26T22:13:12.788Z,99.90
2019-01-26T22:15:42.852Z,99.90
2019-01-26T22:18:13.027Z,99.90
2019-01-26T22:20:43.290Z,99.90
2019-01-26T22:23:13.808Z,99.90
2019-01-26T22:25:44.365Z,99.90
2019-01-26T22:28:14.852Z,99.90
2019-01-26T22:30:45.159Z,99.90
2019-01-26T22:33:15.270Z,99.90
2019-01-26T22:35:45.383Z,99.90
2019-01-26T22:38:15.709Z,99.90
2019-01-26T22:40:47.110Z,99.90
2019-01-26T22:43:38.429Z,99.90
2019-01-26T22:46:08.670Z,99.90
2019-01-26T22:48:38.961Z,99.90
2019-01-26T22:51:09.334Z,99.90
2019-01-26T22:53:39.565Z,99.90
2019-01-26T22:56:09.855Z,99.90
2019-01-26T22:58:40.224Z,99.90
2019-01-26T23:01:13.343Z,99.90
2019-01-26T23:03:53.247Z,99.90
2019-01-26T23:06:35.324Z,99.90
2019-01-26T23:09:15.298Z,99.90
2019-01-26T23:11:58.277Z,99.90
2019-01-26T23:14:37.906Z,99.90
2019-01-26T23:17:22.972Z,99.90
2019-01-26T23:19:58.941Z,99.90
2019-01-26T23:22:48.570Z,99.90
2019-01-26T23:25:30.535Z,99.90
2019-01-26T23:28:12.749Z,99.90
2019-01-26T23:31:08.519Z,99.90
2019-01-26T23:33:40.739Z,99.90
2019-01-26T23:36:12.283Z,99.90
2019-01-26T23:38:43.192Z,99.90
2019-01-26T23:41:13.980Z,99.90
2019-01-26T23:43:44.818Z,99.90
2019-01-26T23:46:15.678Z,99.90
2019-01-26T23:48:46.265Z,99.90
2019-01-26T23:51:18.215Z,99.90
2019-01-26T23:53:48.729Z,99.90
2019-01-26T23:56:19.698Z,99.90
2019-01-26T23:58:50.379Z,99.90
